Skip Navigation LinksHome page > Weather > Current weather Skip Navigation Links

Current Weather

Watsonville Muni, Watsonville, Calif.

For information only: do not use for flight planning or navigation.
Latest weather
Observation time Monday, October 18, 2021 12:53 PM PDT
Local time Monday, October 18, 2021 1:05 PM PDT
Flight conditions Visual Meteorological Conditions
Winds
Wind direction West-Southwest (240°)
Wind speed 10 mph
Wind gusting to 18 mph
Visibility 10 mi.
Sky condition
Ceiling 6,000 ft. broken clouds
Cloud layer broken clouds 6,000 ft.
Temperature 59°F
Dewpoint 46°F
Altimeter 30.06 in.Hg
Derived measurements
Relative humidity 62%
Density altitude 154 ft.
Sea-level pressure 30.06 in.Hg
Remarks
Fully automated report.
Automated weather observing station with precipitation discriminator.
METAR KWVI 181953Z AUTO 24009G16KT 10SM BKN060 15/08 A3006 RMK AO2 SLP178 T01500078

Settings

Location code

InnerDrive.Weather 4.0.6770.0 Release CLR 4.0.30319.42000
Copyright ©2018 Inner Drive Technology. All rights reserved. Portions Copyright ©1986-2018 David Braverman.

Find weather

Site navigation


Skip Navigation Links

Place info

Page info

PayPal - The safer, easier way to pay online!

Return home.

Copyright ©2021 Inner Drive Technology. Purveyors of fine, hand-crafted computer software. Page printed 2021-10-18T20:05:24 UTC.